sensor_id;sensor_type;location;lat;lon;timestamp;temperature;humidity
8824;DHT22;4448;50.904;4.694;2024-01-15T00:01:47;4.20;99.90
8824;DHT22;4448;50.904;4.694;2024-01-15T00:04:13;4.20;99.90
8824;DHT22;4448;50.904;4.694;2024-01-15T00:06:39;4.20;99.90
8824;DHT22;4448;50.904;4.694;2024-01-15T00:09:05;4.20;99.90
8824;DHT22;4448;50.904;4.694;2024-01-15T00:11:32;4.20;99.90
8824;DHT22;4448;50.904;4.694;2024-01-15T00:13:58;4.20;99.90
8824;DHT22;4448;50.904;4.694;2024-01-15T00:16:24;4.20;99.90
8824;DHT22;4448;50.904;4.694;2024-01-15T00:18:49;4.20;99.90
8824;DHT22;4448;50.904;4.694;2024-01-15T00:21:15;4.20;99.90
8824;DHT22;4448;50.904;4.694;2024-01-15T00:23:44;4.20;99.90
8824;DHT22;4448;50.904;4.694;2024-01-15T00:26:10;4.20;99.90
8824;DHT22;4448;50.904;4.694;2024-01-15T00:28:37;4.20;99.90
8824;DHT22;4448;50.904;4.694;2024-01-15T00:31:04;4.20;99.90
8824;DHT22;4448;50.904;4.694;2024-01-15T00:33:29;4.30;99.90
8824;DHT22;4448;50.904;4.694;2024-01-15T00:35:55;4.20;99.90
8824;DHT22;4448;50.904;4.694;2024-01-15T00:38:21;4.30;99.90
8824;DHT22;4448;50.904;4.694;2024-01-15T00:40:47;4.20;99.90
8824;DHT22;4448;50.904;4.694;2024-01-15T00:43:13;4.30;99.90
8824;DHT22;4448;50.904;4.694;2024-01-15T00:45:39;4.30;99.90
8824;DHT22;4448;50.904;4.694;2024-01-15T00:48:05;4.30;99.90
8824;DHT22;4448;50.904;4.694;2024-01-15T00:50:30;4.30;99.90
8824;DHT22;4448;50.904;4.694;2024-01-15T00:52:56;4.30;99.90
8824;DHT22;4448;50.904;4.694;2024-01-15T00:55:22;4.30;99.90
8824;DHT22;4448;50.904;4.694;2024-01-15T00:57:48;4.30;99.90
8824;DHT22;4448;50.904;4.694;2024-01-15T01:00:14;4.30;99.90
8824;DHT22;4448;50.904;4.694;2024-01-15T01:02:39;4.40;99.90
8824;DHT22;4448;50.904;4.694;2024-01-15T01:05:05;4.40;99.90
8824;DHT22;4448;50.904;4.694;2024-01-15T01:07:31;4.30;99.90
8824;DHT22;4448;50.904;4.694;2024-01-15T01:09:57;4.30;99.90
8824;DHT22;4448;50.904;4.694;2024-01-15T01:12:22;4.30;99.90
8824;DHT22;4448;50.904;4.694;2024-01-15T01:14:48;4.30;99.90
8824;DHT22;4448;50.904;4.694;2024-01-15T01:17:14;4.30;99.90
8824;DHT22;4448;50.904;4.694;2024-01-15T01:19:39;4.30;99.90
8824;DHT22;4448;50.904;4.694;2024-01-15T01:22:05;4.30;99.90
8824;DHT22;4448;50.904;4.694;2024-01-15T01:24:31;4.30;99.90
8824;DHT22;4448;50.904;4.694;2024-01-15T01:26:57;4.30;99.90
8824;DHT22;4448;50.904;4.694;2024-01-15T01:29:22;4.20;99.90
8824;DHT22;4448;50.904;4.694;2024-01-15T01:31:48;4.20;99.90
8824;DHT22;4448;50.904;4.694;2024-01-15T01:34:15;4.20;99.90
8824;DHT22;4448;50.904;4.694;2024-01-15T01:36:42;4.20;99.90
8824;DHT22;4448;50.904;4.694;2024-01-15T01:39:08;4.10;99.90
8824;DHT22;4448;50.904;4.694;2024-01-15T01:41:34;4.10;99.90
8824;DHT22;4448;50.904;4.694;2024-01-15T01:44:00;4.10;99.90
8824;DHT22;4448;50.904;4.694;2024-01-15T01:46:27;4.10;99.90
8824;DHT22;4448;50.904;4.694;2024-01-15T01:48:57;4.10;99.90
8824;DHT22;4448;50.904;4.694;2024-01-15T01:51:24;4.10;99.90
8824;DHT22;4448;50.904;4.694;2024-01-15T01:53:50;4.10;99.90
8824;DHT22;4448;50.904;4.694;2024-01-15T01:56:17;4.10;99.90
8824;DHT22;4448;50.904;4.694;2024-01-15T01:58:46;4.10;99.90
8824;DHT22;4448;50.904;4.694;2024-01-15T02:01:13;4.10;99.90
8824;DHT22;4448;50.904;4.694;2024-01-15T02:03:40;4.10;99.90
8824;DHT22;4448;50.904;4.694;2024-01-15T02:06:06;4.10;99.90
8824;DHT22;4448;50.904;4.694;2024-01-15T02:08:31;4.10;99.90
8824;DHT22;4448;50.904;4.694;2024-01-15T02:10:57;4.10;99.90
8824;DHT22;4448;50.904;4.694;2024-01-15T02:13:23;4.10;99.90
8824;DHT22;4448;50.904;4.694;2024-01-15T02:15:49;4.10;99.90
8824;DHT22;4448;50.904;4.694;2024-01-15T02:18:15;4.10;99.90
8824;DHT22;4448;50.904;4.694;2024-01-15T02:20:40;4.10;99.90
8824;DHT22;4448;50.904;4.694;2024-01-15T02:23:13;4.10;99.90
8824;DHT22;4448;50.904;4.694;2024-01-15T02:25:46;4.10;99.90
8824;DHT22;4448;50.904;4.694;2024-01-15T02:28:14;4.10;99.90
8824;DHT22;4448;50.904;4.694;2024-01-15T02:30:41;4.10;99.90
8824;DHT22;4448;50.904;4.694;2024-01-15T02:33:08;4.20;99.90
8824;DHT22;4448;50.904;4.694;2024-01-15T02:35:35;4.20;99.90
8824;DHT22;4448;50.904;4.694;2024-01-15T02:38:04;4.10;99.90
8824;DHT22;4448;50.904;4.694;2024-01-15T02:40:30;4.20;99.90
8824;DHT22;4448;50.904;4.694;2024-01-15T02:42:56;4.20;99.90
8824;DHT22;4448;50.904;4.694;2024-01-15T02:45:22;4.20;99.90
8824;DHT22;4448;50.904;4.694;2024-01-15T02:47:48;4.10;99.90
8824;DHT22;4448;50.904;4.694;2024-01-15T02:50:13;4.20;99.90
8824;DHT22;4448;50.904;4.694;2024-01-15T02:52:39;4.10;99.90
8824;DHT22;4448;50.904;4.694;2024-01-15T02:55:05;4.10;99.90
8824;DHT22;4448;50.904;4.694;2024-01-15T02:57:31;4.20;99.90
8824;DHT22;4448;50.904;4.694;2024-01-15T02:59:57;4.10;99.90
8824;DHT22;4448;50.904;4.694;2024-01-15T03:02:23;4.10;99.90
8824;DHT22;4448;50.904;4.694;2024-01-15T03:04:48;4.10;99.90
8824;DHT22;4448;50.904;4.694;2024-01-15T03:07:14;4.20;99.90
8824;DHT22;4448;50.904;4.694;2024-01-15T03:09:40;4.10;99.90
8824;DHT22;4448;50.904;4.694;2024-01-15T03:12:06;4.10;99.90
8824;DHT22;4448;50.904;4.694;2024-01-15T03:14:31;4.10;99.90
8824;DHT22;4448;50.904;4.694;2024-01-15T03:16:57;4.20;99.90
8824;DHT22;4448;50.904;4.694;2024-01-15T03:19:23;4.20;99.90
8824;DHT22;4448;50.904;4.694;2024-01-15T03:21:48;4.20;99.90
8824;DHT22;4448;50.904;4.694;2024-01-15T03:24:14;4.20;99.90
8824;DHT22;4448;50.904;4.694;2024-01-15T03:26:40;4.20;99.90
8824;DHT22;4448;50.904;4.694;2024-01-15T03:29:06;4.20;99.90
8824;DHT22;4448;50.904;4.694;2024-01-15T03:31:32;4.20;99.90
8824;DHT22;4448;50.904;4.694;2024-01-15T03:33:58;4.20;99.90
8824;DHT22;4448;50.904;4.694;2024-01-15T03:36:24;4.20;99.90
8824;DHT22;4448;50.904;4.694;2024-01-15T03:38:50;4.20;99.90
8824;DHT22;4448;50.904;4.694;2024-01-15T03:41:15;4.20;99.90
8824;DHT22;4448;50.904;4.694;2024-01-15T03:43:41;4.20;99.90
8824;DHT22;4448;50.904;4.694;2024-01-15T03:46:07;4.20;99.90
8824;DHT22;4448;50.904;4.694;2024-01-15T03:48:33;4.20;99.90
8824;DHT22;4448;50.904;4.694;2024-01-15T03:50:58;4.20;99.90
8824;DHT22;4448;50.904;4.694;2024-01-15T03:53:24;4.20;99.90
8824;DHT22;4448;50.904;4.694;2024-01-15T03:55:50;4.20;99.90
8824;DHT22;4448;50.904;4.694;2024-01-15T03:58:16;4.20;99.90
8824;DHT22;4448;50.904;4.694;2024-01-15T04:00:42;4.20;99.90
8824;DHT22;4448;50.904;4.694;2024-01-15T04:03:08;4.20;99.90
8824;DHT22;4448;50.904;4.694;2024-01-15T04:05:34;4.20;99.90
8824;DHT22;4448;50.904;4.694;2024-01-15T04:08:00;4.20;99.90
8824;DHT22;4448;50.904;4.694;2024-01-15T04:10:26;4.20;99.90
8824;DHT22;4448;50.904;4.694;2024-01-15T04:12:52;4.20;99.90
8824;DHT22;4448;50.904;4.694;2024-01-15T04:15:17;4.20;99.90
8824;DHT22;4448;50.904;4.694;2024-01-15T04:17:43;4.20;99.90
8824;DHT22;4448;50.904;4.694;2024-01-15T04:20:09;4.10;99.90
8824;DHT22;4448;50.904;4.694;2024-01-15T04:22:35;4.10;99.90
8824;DHT22;4448;50.904;4.694;2024-01-15T04:25:01;4.10;99.90
8824;DHT22;4448;50.904;4.694;2024-01-15T04:27:27;4.10;99.90
8824;DHT22;4448;50.904;4.694;2024-01-15T04:29:53;4.10;99.90
8824;DHT22;4448;50.904;4.694;2024-01-15T04:32:19;4.10;99.90
8824;DHT22;4448;50.904;4.694;2024-01-15T04:34:45;4.10;99.90
8824;DHT22;4448;50.904;4.694;2024-01-15T04:37:10;4.10;99.90
8824;DHT22;4448;50.904;4.694;2024-01-15T04:39:36;4.00;99.90
8824;DHT22;4448;50.904;4.694;2024-01-15T04:42:02;4.00;99.90
8824;DHT22;4448;50.904;4.694;2024-01-15T04:44:28;4.00;99.90
8824;DHT22;4448;50.904;4.694;2024-01-15T04:46:54;4.00;99.90
8824;DHT22;4448;50.904;4.694;2024-01-15T04:49:20;4.00;99.90
8824;DHT22;4448;50.904;4.694;2024-01-15T04:51:45;4.00;99.90
8824;DHT22;4448;50.904;4.694;2024-01-15T04:54:11;4.00;99.90
8824;DHT22;4448;50.904;4.694;2024-01-15T04:56:37;4.00;99.90
8824;DHT22;4448;50.904;4.694;2024-01-15T04:59:03;3.90;99.90
8824;DHT22;4448;50.904;4.694;2024-01-15T05:01:32;3.90;99.90
8824;DHT22;4448;50.904;4.694;2024-01-15T05:03:58;3.90;99.90
8824;DHT22;4448;50.904;4.694;2024-01-15T05:06:24;3.90;99.90
8824;DHT22;4448;50.904;4.694;2024-01-15T05:08:50;3.80;99.90
8824;DHT22;4448;50.904;4.694;2024-01-15T05:11:15;3.80;99.90
8824;DHT22;4448;50.904;4.694;2024-01-15T05:13:41;3.80;99.90
8824;DHT22;4448;50.904;4.694;2024-01-15T05:16:07;3.80;99.90
8824;DHT22;4448;50.904;4.694;2024-01-15T05:18:33;3.80;99.90
8824;DHT22;4448;50.904;4.694;2024-01-15T05:20:58;3.80;99.90
8824;DHT22;4448;50.904;4.694;2024-01-15T05:23:24;3.80;99.90
8824;DHT22;4448;50.904;4.694;2024-01-15T05:25:50;3.80;99.90
8824;DHT22;4448;50.904;4.694;2024-01-15T05:28:15;3.80;99.90
8824;DHT22;4448;50.904;4.694;2024-01-15T05:30:41;3.80;99.90
8824;DHT22;4448;50.904;4.694;2024-01-15T05:33:07;3.80;99.90
8824;DHT22;4448;50.904;4.694;2024-01-15T05:35:33;3.80;99.90
8824;DHT22;4448;50.904;4.694;2024-01-15T05:37:59;3.80;99.90
8824;DHT22;4448;50.904;4.694;2024-01-15T05:40:25;3.80;99.90
8824;DHT22;4448;50.904;4.694;2024-01-15T05:42:50;3.80;99.90
8824;DHT22;4448;50.904;4.694;2024-01-15T05:45:16;3.80;99.90
8824;DHT22;4448;50.904;4.694;2024-01-15T05:47:42;3.80;99.90
8824;DHT22;4448;50.904;4.694;2024-01-15T05:50:09;3.80;99.90
8824;DHT22;4448;50.904;4.694;2024-01-15T05:52:35;3.70;99.90
8824;DHT22;4448;50.904;4.694;2024-01-15T05:55:01;3.70;99.90
8824;DHT22;4448;50.904;4.694;2024-01-15T05:57:27;3.80;99.90
8824;DHT22;4448;50.904;4.694;2024-01-15T05:59:53;3.70;99.90
8824;DHT22;4448;50.904;4.694;2024-01-15T06:02:19;3.70;99.90
8824;DHT22;4448;50.904;4.694;2024-01-15T06:04:45;3.70;99.90
8824;DHT22;4448;50.904;4.694;2024-01-15T06:07:11;3.70;99.90
8824;DHT22;4448;50.904;4.694;2024-01-15T06:09:36;3.70;99.90
8824;DHT22;4448;50.904;4.694;2024-01-15T06:12:04;3.70;99.90
8824;DHT22;4448;50.904;4.694;2024-01-15T06:14:30;3.70;99.90
8824;DHT22;4448;50.904;4.694;2024-01-15T06:16:56;3.70;99.90
8824;DHT22;4448;50.904;4.694;2024-01-15T06:19:21;3.70;99.90
8824;DHT22;4448;50.904;4.694;2024-01-15T06:21:47;3.70;99.90
8824;DHT22;4448;50.904;4.694;2024-01-15T06:24:13;3.70;99.90
8824;DHT22;4448;50.904;4.694;2024-01-15T06:26:39;3.70;99.90
8824;DHT22;4448;50.904;4.694;2024-01-15T06:29:04;3.70;99.90
8824;DHT22;4448;50.904;4.694;2024-01-15T06:31:30;3.70;99.90
8824;DHT22;4448;50.904;4.694;2024-01-15T06:33:56;3.70;99.90
8824;DHT22;4448;50.904;4.694;2024-01-15T06:36:22;3.70;99.90
8824;DHT22;4448;50.904;4.694;2024-01-15T06:38:47;3.70;99.90
8824;DHT22;4448;50.904;4.694;2024-01-15T06:41:13;3.70;99.90
8824;DHT22;4448;50.904;4.694;2024-01-15T06:43:39;3.70;99.90
8824;DHT22;4448;50.904;4.694;2024-01-15T06:46:04;3.70;99.90
8824;DHT22;4448;50.904;4.694;2024-01-15T06:48:30;3.60;99.90
8824;DHT22;4448;50.904;4.694;2024-01-15T06:50:56;3.60;99.90
8824;DHT22;4448;50.904;4.694;2024-01-15T06:53:21;3.70;99.90
8824;DHT22;4448;50.904;4.694;2024-01-15T06:55:48;3.70;99.90
8824;DHT22;4448;50.904;4.694;2024-01-15T06:58:14;3.70;99.90
8824;DHT22;4448;50.904;4.694;2024-01-15T07:00:40;3.60;99.90
8824;DHT22;4448;50.904;4.694;2024-01-15T07:03:06;3.70;99.90
8824;DHT22;4448;50.904;4.694;2024-01-15T07:05:32;3.70;99.90
8824;DHT22;4448;50.904;4.694;2024-01-15T07:07:58;3.60;99.90
8824;DHT22;4448;50.904;4.694;2024-01-15T07:10:24;3.70;99.90
8824;DHT22;4448;50.904;4.694;2024-01-15T07:12:50;3.60;99.90
8824;DHT22;4448;50.904;4.694;2024-01-15T07:15:16;3.60;99.90
8824;DHT22;4448;50.904;4.694;2024-01-15T07:17:41;3.60;99.90
8824;DHT22;4448;50.904;4.694;2024-01-15T07:20:08;3.60;99.90
8824;DHT22;4448;50.904;4.694;2024-01-15T07:22:38;3.60;99.90
8824;DHT22;4448;50.904;4.694;2024-01-15T07:25:04;3.60;99.90
8824;DHT22;4448;50.904;4.694;2024-01-15T07:27:31;3.60;99.90
8824;DHT22;4448;50.904;4.694;2024-01-15T07:29:57;3.60;99.90
8824;DHT22;4448;50.904;4.694;2024-01-15T07:32:23;3.60;99.90
8824;DHT22;4448;50.904;4.694;2024-01-15T07:34:49;3.60;99.90
8824;DHT22;4448;50.904;4.694;2024-01-15T07:37:15;3.60;99.90
8824;DHT22;4448;50.904;4.694;2024-01-15T07:39:41;3.60;99.90
8824;DHT22;4448;50.904;4.694;2024-01-15T07:42:06;3.60;99.90
8824;DHT22;4448;50.904;4.694;2024-01-15T07:44:33;3.60;99.90
8824;DHT22;4448;50.904;4.694;2024-01-15T07:46:59;3.60;99.90
8824;DHT22;4448;50.904;4.694;2024-01-15T07:49:25;3.60;99.90
8824;DHT22;4448;50.904;4.694;2024-01-15T07:51:50;3.60;99.90
8824;DHT22;4448;50.904;4.694;2024-01-15T07:54:16;3.60;99.90
8824;DHT22;4448;50.904;4.694;2024-01-15T07:57:01;3.60;99.90
8824;DHT22;4448;50.904;4.694;2024-01-15T07:59:30;3.60;99.90
8824;DHT22;4448;50.904;4.694;2024-01-15T08:01:56;3.70;99.90
8824;DHT22;4448;50.904;4.694;2024-01-15T08:04:22;3.70;99.90
8824;DHT22;4448;50.904;4.694;2024-01-15T08:06:48;3.70;99.90
8824;DHT22;4448;50.904;4.694;2024-01-15T08:09:13;3.70;99.90
8824;DHT22;4448;50.904;4.694;2024-01-15T08:11:40;3.70;99.90
8824;DHT22;4448;50.904;4.694;2024-01-15T08:14:09;3.70;99.90
8824;DHT22;4448;50.904;4.694;2024-01-15T08:16:35;3.70;99.90
8824;DHT22;4448;50.904;4.694;2024-01-15T08:19:01;3.70;99.90
8824;DHT22;4448;50.904;4.694;2024-01-15T08:21:27;3.70;99.90
8824;DHT22;4448;50.904;4.694;2024-01-15T08:23:57;3.70;99.90
8824;DHT22;4448;50.904;4.694;2024-01-15T08:26:24;3.70;99.90
8824;DHT22;4448;50.904;4.694;2024-01-15T08:28:49;3.80;99.90
8824;DHT22;4448;50.904;4.694;2024-01-15T08:31:15;3.80;99.90
8824;DHT22;4448;50.904;4.694;2024-01-15T08:33:41;3.80;99.90
8824;DHT22;4448;50.904;4.694;2024-01-15T08:36:07;3.80;99.90
8824;DHT22;4448;50.904;4.694;2024-01-15T08:38:32;3.80;99.90
8824;DHT22;4448;50.904;4.694;2024-01-15T08:40:58;3.80;99.90
8824;DHT22;4448;50.904;4.694;2024-01-15T08:43:26;3.80;99.90
8824;DHT22;4448;50.904;4.694;2024-01-15T08:45:52;3.90;99.90
8824;DHT22;4448;50.904;4.694;2024-01-15T08:48:18;3.90;99.90
8824;DHT22;4448;50.904;4.694;2024-01-15T08:50:44;3.90;99.90
8824;DHT22;4448;50.904;4.694;2024-01-15T08:53:13;3.90;99.90
8824;DHT22;4448;50.904;4.694;2024-01-15T08:55:39;3.90;99.90
8824;DHT22;4448;50.904;4.694;2024-01-15T08:58:05;3.90;99.90
8824;DHT22;4448;50.904;4.694;2024-01-15T09:00:32;3.90;99.90
8824;DHT22;4448;50.904;4.694;2024-01-15T09:02:57;4.00;99.90
8824;DHT22;4448;50.904;4.694;2024-01-15T09:05:23;4.00;99.90
8824;DHT22;4448;50.904;4.694;2024-01-15T09:07:49;4.00;99.90
8824;DHT22;4448;50.904;4.694;2024-01-15T09:10:17;4.00;99.90
8824;DHT22;4448;50.904;4.694;2024-01-15T09:12:43;4.00;99.90
8824;DHT22;4448;50.904;4.694;2024-01-15T09:15:09;4.00;99.90
8824;DHT22;4448;50.904;4.694;2024-01-15T09:17:34;4.00;99.90
8824;DHT22;4448;50.904;4.694;2024-01-15T09:20:00;4.10;99.90
8824;DHT22;4448;50.904;4.694;2024-01-15T09:22:26;4.10;99.90
8824;DHT22;4448;50.904;4.694;2024-01-15T09:24:52;4.10;99.90
8824;DHT22;4448;50.904;4.694;2024-01-15T09:27:18;4.10;99.90
8824;DHT22;4448;50.904;4.694;2024-01-15T09:29:44;4.10;99.90
8824;DHT22;4448;50.904;4.694;2024-01-15T09:32:11;4.10;99.90
8824;DHT22;4448;50.904;4.694;2024-01-15T09:34:38;4.10;99.90
8824;DHT22;4448;50.904;4.694;2024-01-15T09:37:04;4.10;99.90
8824;DHT22;4448;50.904;4.694;2024-01-15T09:39:30;4.10;99.90
8824;DHT22;4448;50.904;4.694;2024-01-15T09:41:57;4.10;99.90
8824;DHT22;4448;50.904;4.694;2024-01-15T09:44:23;4.10;99.90
8824;DHT22;4448;50.904;4.694;2024-01-15T09:46:49;4.10;99.90
8824;DHT22;4448;50.904;4.694;2024-01-15T09:49:18;4.20;99.90
8824;DHT22;4448;50.904;4.694;2024-01-15T09:51:44;4.20;99.90
8824;DHT22;4448;50.904;4.694;2024-01-15T09:54:11;4.40;99.90
8824;DHT22;4448;50.904;4.694;2024-01-15T09:56:39;4.50;99.90
8824;DHT22;4448;50.904;4.694;2024-01-15T09:59:05;4.60;99.90
8824;DHT22;4448;50.904;4.694;2024-01-15T10:01:32;4.70;99.90
8824;DHT22;4448;50.904;4.694;2024-01-15T10:03:58;4.80;99.90
8824;DHT22;4448;50.904;4.694;2024-01-15T10:06:27;4.90;99.90
8824;DHT22;4448;50.904;4.694;2024-01-15T10:08:54;5.00;99.90
8824;DHT22;4448;50.904;4.694;2024-01-15T10:11:21;5.10;99.90
8824;DHT22;4448;50.904;4.694;2024-01-15T10:13:47;5.20;99.90
8824;DHT22;4448;50.904;4.694;2024-01-15T10:16:17;5.40;99.90
8824;DHT22;4448;50.904;4.694;2024-01-15T10:18:43;5.40;99.90
8824;DHT22;4448;50.904;4.694;2024-01-15T10:21:09;5.50;99.90
8824;DHT22;4448;50.904;4.694;2024-01-15T10:23:34;5.60;99.90
8824;DHT22;4448;50.904;4.694;2024-01-15T10:26:02;5.70;99.90
8824;DHT22;4448;50.904;4.694;2024-01-15T10:28:28;5.80;99.90
8824;DHT22;4448;50.904;4.694;2024-01-15T10:30:57;5.90;99.90
8824;DHT22;4448;50.904;4.694;2024-01-15T10:33:25;5.90;99.90
8824;DHT22;4448;50.904;4.694;2024-01-15T10:35:53;6.00;99.90
8824;DHT22;4448;50.904;4.694;2024-01-15T10:38:21;6.10;99.90
8824;DHT22;4448;50.904;4.694;2024-01-15T10:40:57;6.10;99.90
8824;DHT22;4448;50.904;4.694;2024-01-15T10:43:23;6.20;99.90
8824;DHT22;4448;50.904;4.694;2024-01-15T10:45:50;6.30;99.90
8824;DHT22;4448;50.904;4.694;2024-01-15T10:48:17;6.40;99.90
8824;DHT22;4448;50.904;4.694;2024-01-15T10:50:44;6.40;99.90
8824;DHT22;4448;50.904;4.694;2024-01-15T10:53:11;6.50;99.90
8824;DHT22;4448;50.904;4.694;2024-01-15T10:55:38;6.50;99.90
8824;DHT22;4448;50.904;4.694;2024-01-15T10:58:07;6.50;99.90
8824;DHT22;4448;50.904;4.694;2024-01-15T11:00:34;6.60;99.90
8824;DHT22;4448;50.904;4.694;2024-01-15T11:03:01;6.60;99.90
8824;DHT22;4448;50.904;4.694;2024-01-15T11:05:27;6.60;99.90
8824;DHT22;4448;50.904;4.694;2024-01-15T11:07:58;6.60;99.90
8824;DHT22;4448;50.904;4.694;2024-01-15T11:10:46;6.60;99.90
8824;DHT22;4448;50.904;4.694;2024-01-15T11:16:09;6.50;99.90
8824;DHT22;4448;50.904;4.694;2024-01-15T11:18:40;6.40;99.90
8824;DHT22;4448;50.904;4.694;2024-01-15T11:23:52;6.30;99.90
8824;DHT22;4448;50.904;4.694;2024-01-15T11:28:56;6.20;99.90
8824;DHT22;4448;50.904;4.694;2024-01-15T11:34:07;6.10;99.90
8824;DHT22;4448;50.904;4.694;2024-01-15T11:41:58;6.00;99.90
8824;DHT22;4448;50.904;4.694;2024-01-15T11:44:25;6.00;99.90
8824;DHT22;4448;50.904;4.694;2024-01-15T11:47:01;6.00;99.90
8824;DHT22;4448;50.904;4.694;2024-01-15T11:52:17;6.00;99.90
8824;DHT22;4448;50.904;4.694;2024-01-15T11:54:52;6.00;99.90
8824;DHT22;4448;50.904;4.694;2024-01-15T11:57:51;6.00;99.90
8824;DHT22;4448;50.904;4.694;2024-01-15T12:00:18;6.00;99.90
8824;DHT22;4448;50.904;4.694;2024-01-15T12:02:45;5.90;99.90
8824;DHT22;4448;50.904;4.694;2024-01-15T12:05:13;5.90;99.90
8824;DHT22;4448;50.904;4.694;2024-01-15T12:07:43;5.90;99.90
8824;DHT22;4448;50.904;4.694;2024-01-15T12:10:14;5.90;99.90
8824;DHT22;4448;50.904;4.694;2024-01-15T12:15:28;5.90;99.90
8824;DHT22;4448;50.904;4.694;2024-01-15T12:17:56;5.90;99.90
8824;DHT22;4448;50.904;4.694;2024-01-15T12:20:24;5.90;99.90
8824;DHT22;4448;50.904;4.694;2024-01-15T12:22:50;6.00;99.90
8824;DHT22;4448;50.904;4.694;2024-01-15T12:25:15;6.00;99.90
8824;DHT22;4448;50.904;4.694;2024-01-15T12:27:41;6.00;99.90
8824;DHT22;4448;50.904;4.694;2024-01-15T12:30:10;6.00;99.90
8824;DHT22;4448;50.904;4.694;2024-01-15T12:32:36;6.10;99.90
8824;DHT22;4448;50.904;4.694;2024-01-15T12:35:02;6.10;99.90
8824;DHT22;4448;50.904;4.694;2024-01-15T12:37:29;6.10;99.90
8824;DHT22;4448;50.904;4.694;2024-01-15T12:39:54;6.00;99.90
8824;DHT22;4448;50.904;4.694;2024-01-15T12:42:21;6.00;99.90
8824;DHT22;4448;50.904;4.694;2024-01-15T12:44:47;6.00;99.90
8824;DHT22;4448;50.904;4.694;2024-01-15T12:47:13;6.00;99.90
8824;DHT22;4448;50.904;4.694;2024-01-15T12:49:40;5.90;99.90
8824;DHT22;4448;50.904;4.694;2024-01-15T12:52:09;5.90;99.90
8824;DHT22;4448;50.904;4.694;2024-01-15T12:54:35;5.90;99.90
8824;DHT22;4448;50.904;4.694;2024-01-15T12:57:01;5.90;99.90
8824;DHT22;4448;50.904;4.694;2024-01-15T12:59:26;5.90;99.90
8824;DHT22;4448;50.904;4.694;2024-01-15T13:01:52;5.80;99.90
8824;DHT22;4448;50.904;4.694;2024-01-15T13:04:25;5.80;99.90
8824;DHT22;4448;50.904;4.694;2024-01-15T13:06:51;5.70;99.90
8824;DHT22;4448;50.904;4.694;2024-01-15T13:09:17;5.60;99.90
8824;DHT22;4448;50.904;4.694;2024-01-15T13:11:44;5.60;99.90
8824;DHT22;4448;50.904;4.694;2024-01-15T13:14:10;5.50;99.90
8824;DHT22;4448;50.904;4.694;2024-01-15T13:16:36;5.40;99.90
8824;DHT22;4448;50.904;4.694;2024-01-15T13:19:02;5.30;99.90
8824;DHT22;4448;50.904;4.694;2024-01-15T13:21:30;5.20;99.90
8824;DHT22;4448;50.904;4.694;2024-01-15T13:23:55;5.10;99.90
8824;DHT22;4448;50.904;4.694;2024-01-15T13:26:21;5.10;99.90
8824;DHT22;4448;50.904;4.694;2024-01-15T13:28:47;5.00;99.90
8824;DHT22;4448;50.904;4.694;2024-01-15T13:31:13;4.90;99.90
8824;DHT22;4448;50.904;4.694;2024-01-15T13:33:40;4.80;99.90
8824;DHT22;4448;50.904;4.694;2024-01-15T13:36:05;4.80;99.90
8824;DHT22;4448;50.904;4.694;2024-01-15T13:38:34;4.70;99.90
8824;DHT22;4448;50.904;4.694;2024-01-15T13:41:03;4.70;99.90
8824;DHT22;4448;50.904;4.694;2024-01-15T13:43:29;4.70;99.90
8824;DHT22;4448;50.904;4.694;2024-01-15T13:45:55;4.70;99.90
8824;DHT22;4448;50.904;4.694;2024-01-15T13:48:20;4.70;99.90
8824;DHT22;4448;50.904;4.694;2024-01-15T13:50:46;4.60;99.90
8824;DHT22;4448;50.904;4.694;2024-01-15T13:53:12;4.60;99.90
8824;DHT22;4448;50.904;4.694;2024-01-15T13:55:37;4.50;99.90
8824;DHT22;4448;50.904;4.694;2024-01-15T13:58:03;4.50;99.90
8824;DHT22;4448;50.904;4.694;2024-01-15T14:00:32;4.50;99.90
8824;DHT22;4448;50.904;4.694;2024-01-15T14:02:57;4.40;99.90
8824;DHT22;4448;50.904;4.694;2024-01-15T14:05:23;4.40;99.90
8824;DHT22;4448;50.904;4.694;2024-01-15T14:07:50;4.30;99.90
8824;DHT22;4448;50.904;4.694;2024-01-15T14:10:16;4.30;99.90
8824;DHT22;4448;50.904;4.694;2024-01-15T14:12:43;4.30;99.90
8824;DHT22;4448;50.904;4.694;2024-01-15T14:15:08;4.30;99.90
8824;DHT22;4448;50.904;4.694;2024-01-15T14:17:34;4.30;99.90
8824;DHT22;4448;50.904;4.694;2024-01-15T14:20:00;4.30;99.90
8824;DHT22;4448;50.904;4.694;2024-01-15T14:22:26;4.30;99.90
8824;DHT22;4448;50.904;4.694;2024-01-15T14:24:51;4.30;99.90
8824;DHT22;4448;50.904;4.694;2024-01-15T14:27:18;4.30;99.90
8824;DHT22;4448;50.904;4.694;2024-01-15T14:29:43;4.30;99.90
8824;DHT22;4448;50.904;4.694;2024-01-15T14:32:09;4.30;99.90
8824;DHT22;4448;50.904;4.694;2024-01-15T14:34:35;4.30;99.90
8824;DHT22;4448;50.904;4.694;2024-01-15T14:37:02;4.30;99.90
8824;DHT22;4448;50.904;4.694;2024-01-15T14:39:28;4.20;99.90
8824;DHT22;4448;50.904;4.694;2024-01-15T14:41:54;4.20;99.90
8824;DHT22;4448;50.904;4.694;2024-01-15T14:44:20;4.20;99.90
8824;DHT22;4448;50.904;4.694;2024-01-15T14:46:46;4.10;99.90
8824;DHT22;4448;50.904;4.694;2024-01-15T14:49:12;4.00;99.90
8824;DHT22;4448;50.904;4.694;2024-01-15T14:51:38;4.10;99.90
8824;DHT22;4448;50.904;4.694;2024-01-15T14:54:03;4.10;99.90
8824;DHT22;4448;50.904;4.694;2024-01-15T14:56:29;4.10;99.90
8824;DHT22;4448;50.904;4.694;2024-01-15T14:58:55;4.00;99.90
8824;DHT22;4448;50.904;4.694;2024-01-15T15:01:20;4.00;99.90
8824;DHT22;4448;50.904;4.694;2024-01-15T15:03:48;4.00;99.90
8824;DHT22;4448;50.904;4.694;2024-01-15T15:06:14;4.00;99.90
8824;DHT22;4448;50.904;4.694;2024-01-15T15:08:39;4.00;99.90
8824;DHT22;4448;50.904;4.694;2024-01-15T15:11:06;4.00;99.90
8824;DHT22;4448;50.904;4.694;2024-01-15T15:13:32;4.00;99.90
8824;DHT22;4448;50.904;4.694;2024-01-15T15:15:58;4.00;99.90
8824;DHT22;4448;50.904;4.694;2024-01-15T15:18:23;4.00;99.90
8824;DHT22;4448;50.904;4.694;2024-01-15T15:20:49;4.00;99.90
8824;DHT22;4448;50.904;4.694;2024-01-15T15:23:15;4.00;99.90
8824;DHT22;4448;50.904;4.694;2024-01-15T15:25:41;4.00;99.90
8824;DHT22;4448;50.904;4.694;2024-01-15T15:28:10;4.00;99.90
8824;DHT22;4448;50.904;4.694;2024-01-15T15:30:37;4.00;99.90
8824;DHT22;4448;50.904;4.694;2024-01-15T15:33:03;4.00;99.90
8824;DHT22;4448;50.904;4.694;2024-01-15T15:35:30;3.90;99.90
8824;DHT22;4448;50.904;4.694;2024-01-15T15:37:56;4.00;99.90
8824;DHT22;4448;50.904;4.694;2024-01-15T15:40:22;4.00;99.90
8824;DHT22;4448;50.904;4.694;2024-01-15T15:42:52;4.00;99.90
8824;DHT22;4448;50.904;4.694;2024-01-15T15:45:18;4.00;99.90
8824;DHT22;4448;50.904;4.694;2024-01-15T15:47:43;4.00;99.90
8824;DHT22;4448;50.904;4.694;2024-01-15T15:50:09;4.00;99.90
8824;DHT22;4448;50.904;4.694;2024-01-15T15:52:35;4.00;99.90
8824;DHT22;4448;50.904;4.694;2024-01-15T15:55:01;4.00;99.90
8824;DHT22;4448;50.904;4.694;2024-01-15T15:57:28;4.00;99.90
8824;DHT22;4448;50.904;4.694;2024-01-15T15:59:55;4.00;99.90
8824;DHT22;4448;50.904;4.694;2024-01-15T16:02:21;4.00;99.90
8824;DHT22;4448;50.904;4.694;2024-01-15T16:04:46;4.00;99.90
8824;DHT22;4448;50.904;4.694;2024-01-15T16:07:12;4.00;99.90
8824;DHT22;4448;50.904;4.694;2024-01-15T16:09:39;4.00;99.90
8824;DHT22;4448;50.904;4.694;2024-01-15T16:12:06;4.00;99.90
8824;DHT22;4448;50.904;4.694;2024-01-15T16:14:33;4.00;99.90
8824;DHT22;4448;50.904;4.694;2024-01-15T16:16:59;4.00;99.90
8824;DHT22;4448;50.904;4.694;2024-01-15T16:19:25;4.00;99.90
8824;DHT22;4448;50.904;4.694;2024-01-15T16:21:51;3.90;99.90
8824;DHT22;4448;50.904;4.694;2024-01-15T16:24:18;3.90;99.90
8824;DHT22;4448;50.904;4.694;2024-01-15T16:26:45;3.90;99.90
8824;DHT22;4448;50.904;4.694;2024-01-15T16:29:10;3.90;99.90
8824;DHT22;4448;50.904;4.694;2024-01-15T16:31:37;3.90;99.90
8824;DHT22;4448;50.904;4.694;2024-01-15T16:34:04;3.80;99.90